createdAt,value
2023-04-16T00:00:16.598Z,3.68
2023-04-16T00:02:44.798Z,3.65
2023-04-16T00:05:13.060Z,3.63
2023-04-16T00:07:42.408Z,3.63
2023-04-16T00:10:10.856Z,3.62
2023-04-16T00:12:38.929Z,3.62
2023-04-16T00:15:07.659Z,3.64
2023-04-16T00:17:35.888Z,3.65
2023-04-16T00:20:04.218Z,3.66
2023-04-16T00:22:32.240Z,3.70
2023-04-16T00:25:01.704Z,3.72
2023-04-16T00:27:29.799Z,3.72
2023-04-16T00:29:57.980Z,3.70
2023-04-16T00:32:26.185Z,3.69
2023-04-16T00:34:54.327Z,3.68
2023-04-16T00:37:22.588Z,3.67
2023-04-16T00:39:51.671Z,3.66
2023-04-16T00:42:21.047Z,3.67
2023-04-16T00:44:49.218Z,3.66
2023-04-16T00:47:17.639Z,3.69
2023-04-16T00:49:45.885Z,3.73
2023-04-16T00:52:14.163Z,3.72
2023-04-16T00:54:42.323Z,3.75
2023-04-16T00:57:11.570Z,3.79
2023-04-16T00:59:41.567Z,3.81
2023-04-16T01:02:09.895Z,3.82
2023-04-16T01:04:38.057Z,3.86
2023-04-16T01:07:06.139Z,3.87
2023-04-16T01:09:34.342Z,3.88
2023-04-16T01:12:04.449Z,3.87
2023-04-16T01:14:36.398Z,3.89
2023-04-16T01:17:06.061Z,3.90
2023-04-16T01:19:36.335Z,3.93
2023-04-16T01:22:06.192Z,3.94
2023-04-16T01:24:36.490Z,3.96
2023-04-16T01:27:04.671Z,3.98
2023-04-16T01:29:32.712Z,4.00
2023-04-16T01:32:02.172Z,4.03
2023-04-16T01:34:35.203Z,4.03
2023-04-16T01:37:06.392Z,4.05
2023-04-16T01:39:34.482Z,4.05
2023-04-16T01:42:03.387Z,4.05
2023-04-16T01:44:31.958Z,4.05
2023-04-16T01:47:00.246Z,4.07
2023-04-16T01:49:28.731Z,4.09
2023-04-16T01:51:57.029Z,4.08
2023-04-16T01:54:26.534Z,4.08
2023-04-16T01:56:54.635Z,4.05
2023-04-16T01:59:23.276Z,4.03
2023-04-16T02:01:51.449Z,4.02
2023-04-16T02:04:19.601Z,3.99
2023-04-16T02:06:47.864Z,3.98
2023-04-16T02:09:16.201Z,3.96
2023-04-16T02:11:45.713Z,3.96
2023-04-16T02:14:13.873Z,3.97
2023-04-16T02:16:42.094Z,3.96
2023-04-16T02:19:18.630Z,3.97
2023-04-16T02:21:47.185Z,3.97
2023-04-16T02:24:15.698Z,4.00
2023-04-16T02:26:45.752Z,3.97
2023-04-16T02:29:17.690Z,3.94
2023-04-16T02:31:53.572Z,3.95
2023-04-16T02:34:22.343Z,3.93
2023-04-16T02:36:50.508Z,3.91
2023-04-16T02:39:18.694Z,3.88
2023-04-16T02:41:48.105Z,3.83
2023-04-16T02:44:16.446Z,3.79
2023-04-16T02:46:44.566Z,3.78
2023-04-16T02:49:12.724Z,3.79
2023-04-16T02:51:40.803Z,3.77
2023-04-16T02:54:08.978Z,3.78
2023-04-16T02:56:37.081Z,3.78
2023-04-16T02:59:06.562Z,3.78
2023-04-16T03:01:34.931Z,3.80
2023-04-16T03:04:03.342Z,3.81
2023-04-16T03:06:31.606Z,3.83
2023-04-16T03:08:59.734Z,3.86
2023-04-16T03:11:27.916Z,3.88
2023-04-16T03:13:56.702Z,3.90
2023-04-16T03:16:26.187Z,3.88
2023-04-16T03:18:54.330Z,3.91
2023-04-16T03:21:22.515Z,3.95
2023-04-16T03:23:50.638Z,3.98
2023-04-16T03:26:18.679Z,4.00
2023-04-16T03:28:47.028Z,4.02
2023-04-16T03:31:15.096Z,4.05
2023-04-16T03:33:44.639Z,4.05
2023-04-16T03:36:12.798Z,4.03
2023-04-16T03:38:41.008Z,4.03
2023-04-16T03:41:09.208Z,4.02
2023-04-16T03:43:38.245Z,4.02
2023-04-16T03:46:06.686Z,4.03
2023-04-16T03:48:35.162Z,4.03
2023-04-16T03:51:04.916Z,4.04
2023-04-16T03:53:35.041Z,4.07
2023-04-16T03:56:03.198Z,4.05
2023-04-16T03:58:31.337Z,4.04
2023-04-16T04:00:59.443Z,4.03
2023-04-16T04:03:27.877Z,4.03
2023-04-16T04:05:56.866Z,4.05
2023-04-16T04:08:30.760Z,4.07
2023-04-16T04:10:58.999Z,4.08
2023-04-16T04:13:27.114Z,4.09
2023-04-16T04:15:55.730Z,4.12
2023-04-16T04:18:24.747Z,4.16
2023-04-16T04:20:53.164Z,4.17
2023-04-16T04:23:25.388Z,4.16
2023-04-16T04:25:54.859Z,4.15
2023-04-16T04:28:23.838Z,4.16
2023-04-16T04:30:52.108Z,4.15
2023-04-16T04:33:20.475Z,4.14
2023-04-16T04:35:49.361Z,4.17
2023-04-16T04:38:20.081Z,4.19
2023-04-16T04:40:49.121Z,4.18
2023-04-16T04:43:20.195Z,4.17
2023-04-16T04:45:49.424Z,4.17
2023-04-16T04:48:18.721Z,4.15
2023-04-16T04:50:47.657Z,4.17
2023-04-16T04:53:15.918Z,4.15
2023-04-16T04:55:44.433Z,4.17
2023-04-16T04:58:12.629Z,4.15
2023-04-16T05:00:44.082Z,4.15
2023-04-16T05:03:13.455Z,4.15
2023-04-16T05:05:42.159Z,4.14
2023-04-16T05:08:10.223Z,4.13
2023-04-16T05:10:38.368Z,4.14
2023-04-16T05:13:06.489Z,4.16
2023-04-16T05:15:34.553Z,4.17
2023-04-16T05:18:04.034Z,4.18
2023-04-16T05:20:32.181Z,4.17
2023-04-16T05:23:00.425Z,4.21
2023-04-16T05:25:28.494Z,4.24
2023-04-16T05:27:56.635Z,4.25
2023-04-16T05:30:24.768Z,4.28
2023-04-16T05:32:52.841Z,4.30
2023-04-16T05:35:22.418Z,4.32
2023-04-16T05:37:50.427Z,4.32
2023-04-16T05:40:18.642Z,4.35
2023-04-16T05:42:47.912Z,4.35
2023-04-16T05:45:15.991Z,4.37
2023-04-16T05:47:44.324Z,4.39
2023-04-16T05:50:12.688Z,4.41
2023-04-16T05:52:42.070Z,4.43
2023-04-16T05:55:10.969Z,4.44
2023-04-16T05:57:39.013Z,4.43
2023-04-16T06:00:08.596Z,4.44
2023-04-16T06:02:42.627Z,4.46
2023-04-16T06:05:11.194Z,4.49
2023-04-16T06:07:39.251Z,4.51
2023-04-16T06:10:09.428Z,4.56
2023-04-16T06:12:37.477Z,4.59
2023-04-16T06:15:06.474Z,4.63
2023-04-16T06:17:34.602Z,4.66
2023-04-16T06:20:02.761Z,4.71
2023-04-16T06:22:31.011Z,4.76
2023-04-16T06:24:59.114Z,4.84
2023-04-16T06:27:28.506Z,4.89
2023-04-16T06:29:58.234Z,4.93
2023-04-16T06:32:26.402Z,4.98
2023-04-16T06:34:54.683Z,5.06
2023-04-16T06:37:22.744Z,5.11
2023-04-16T06:39:50.915Z,5.18
2023-04-16T06:42:19.090Z,5.26
2023-04-16T06:44:48.958Z,5.34
2023-04-16T06:47:17.542Z,5.40
2023-04-16T06:49:45.660Z,5.43
2023-04-16T06:52:13.850Z,5.49
2023-04-16T06:54:42.069Z,5.51
2023-04-16T06:57:10.176Z,5.53
2023-04-16T06:59:38.319Z,5.56
2023-04-16T07:02:08.981Z,5.59
2023-04-16T07:04:37.345Z,5.61
2023-04-16T07:07:05.657Z,5.62
2023-04-16T07:09:33.830Z,5.64
2023-04-16T07:12:01.991Z,5.68
2023-04-16T07:14:30.126Z,5.72
2023-04-16T07:16:58.417Z,5.77
2023-04-16T07:19:30.649Z,5.82
2023-04-16T07:21:58.806Z,5.90
2023-04-16T07:24:26.948Z,5.94
2023-04-16T07:26:55.069Z,5.97
2023-04-16T07:29:23.089Z,5.99
2023-04-16T07:31:51.283Z,6.00
2023-04-16T07:34:19.374Z,6.03
2023-04-16T07:36:48.864Z,6.05
2023-04-16T07:39:16.979Z,6.04
2023-04-16T07:41:45.390Z,6.03
2023-04-16T07:44:13.391Z,6.05
2023-04-16T07:46:46.977Z,6.07
2023-04-16T07:49:16.040Z,6.10
2023-04-16T07:51:44.213Z,6.14
2023-04-16T07:54:13.640Z,6.13
2023-04-16T07:56:41.750Z,6.11
2023-04-16T07:59:21.985Z,6.07
2023-04-16T08:01:53.722Z,6.08
2023-04-16T08:04:25.766Z,6.08
2023-04-16T08:06:55.225Z,6.11
2023-04-16T08:09:27.548Z,6.14
2023-04-16T08:11:55.710Z,6.17
2023-04-16T08:14:23.775Z,6.24
2023-04-16T08:16:52.222Z,6.23
2023-04-16T08:19:20.549Z,6.27
2023-04-16T08:21:48.771Z,6.32
2023-04-16T08:24:16.958Z,6.34
2023-04-16T08:26:46.500Z,6.41
2023-04-16T08:29:14.529Z,6.52
2023-04-16T08:31:43.248Z,6.64
2023-04-16T08:34:12.520Z,6.75
2023-04-16T08:36:41.640Z,6.87
2023-04-16T08:39:10.323Z,6.96
2023-04-16T08:41:41.791Z,6.95
2023-04-16T08:44:15.721Z,6.94
2023-04-16T08:46:45.375Z,6.94
2023-04-16T08:49:18.088Z,7.00
2023-04-16T08:51:52.345Z,7.06
2023-04-16T08:54:32.315Z,7.17
2023-04-16T08:57:01.556Z,7.24
2023-04-16T08:59:31.450Z,7.24
2023-04-16T09:02:00.482Z,7.23
2023-04-16T09:04:29.590Z,7.28
2023-04-16T09:06:59.636Z,7.32
2023-04-16T09:09:28.620Z,7.34
2023-04-16T09:11:57.354Z,7.41
2023-04-16T09:14:26.546Z,7.55
2023-04-16T09:16:57.011Z,7.60
2023-04-16T09:19:25.227Z,7.67
2023-04-16T09:21:53.285Z,7.76
2023-04-16T09:24:22.830Z,7.82
2023-04-16T09:26:52.957Z,7.90
2023-04-16T09:29:40.121Z,7.97
2023-04-16T09:32:11.079Z,8.03
2023-04-16T09:34:56.100Z,8.04
2023-04-16T09:37:24.817Z,8.12
2023-04-16T09:39:58.119Z,8.23
2023-04-16T09:42:28.419Z,8.36
2023-04-16T09:44:59.729Z,8.46
2023-04-16T09:47:42.355Z,8.61
2023-04-16T09:50:13.157Z,8.65
2023-04-16T09:52:44.222Z,8.65
2023-04-16T09:55:12.742Z,8.70
2023-04-16T09:57:40.860Z,8.74
2023-04-16T10:00:11.366Z,8.81
2023-04-16T10:02:43.111Z,8.98
2023-04-16T10:05:16.784Z,9.16
2023-04-16T10:07:44.777Z,9.32
2023-04-16T10:10:13.088Z,9.37
2023-04-16T10:12:42.038Z,9.50
2023-04-16T10:15:10.753Z,9.58
2023-04-16T10:17:39.879Z,9.74
2023-04-16T10:20:10.433Z,9.92
2023-04-16T10:22:39.352Z,9.99
2023-04-16T10:25:08.845Z,10.04
2023-04-16T10:27:38.448Z,10.06
2023-04-16T10:30:08.704Z,9.90
2023-04-16T10:32:38.172Z,9.86
2023-04-16T10:35:07.338Z,9.71
2023-04-16T10:37:38.821Z,9.60
2023-04-16T10:40:24.601Z,9.58
2023-04-16T10:42:57.302Z,9.64
2023-04-16T10:45:31.778Z,9.76
2023-04-16T10:48:00.248Z,9.90
2023-04-16T10:50:36.441Z,10.00
2023-04-16T10:53:25.938Z,10.00
2023-04-16T10:56:12.770Z,9.99
2023-04-16T10:58:41.054Z,10.07
2023-04-16T11:01:13.391Z,10.04
2023-04-16T11:03:44.211Z,10.09
2023-04-16T11:06:14.604Z,10.11
2023-04-16T11:08:53.760Z,10.17
2023-04-16T11:11:23.962Z,10.18
2023-04-16T11:13:57.073Z,10.23
2023-04-16T11:16:27.459Z,10.35
2023-04-16T11:18:57.258Z,10.40
2023-04-16T11:21:26.757Z,10.47
2023-04-16T11:23:56.822Z,10.50
2023-04-16T11:26:26.571Z,10.47
2023-04-16T11:28:56.677Z,10.44
2023-04-16T11:31:27.359Z,10.53
2023-04-16T11:33:57.887Z,10.57
2023-04-16T11:36:27.734Z,10.55
2023-04-16T11:39:04.721Z,10.53
2023-04-16T11:41:32.965Z,10.60
2023-04-16T11:44:01.402Z,10.70
2023-04-16T11:46:39.860Z,10.78
2023-04-16T11:49:08.247Z,10.81
2023-04-16T11:51:41.312Z,10.74
2023-04-16T11:54:12.234Z,10.56
2023-04-16T11:56:46.791Z,10.26
2023-04-16T11:59:17.156Z,10.14
2023-04-16T12:01:48.782Z,10.02
2023-04-16T12:04:18.802Z,10.09
2023-04-16T12:07:07.962Z,10.07
2023-04-16T12:09:40.171Z,10.18
2023-04-16T12:12:27.427Z,10.22
2023-04-16T12:14:56.919Z,10.17
2023-04-16T12:17:25.307Z,10.12
2023-04-16T12:19:57.357Z,10.00
2023-04-16T12:22:30.110Z,9.92
2023-04-16T12:25:02.714Z,9.90
2023-04-16T12:27:47.019Z,9.89
2023-04-16T12:30:16.303Z,9.88
2023-04-16T12:32:46.197Z,9.90
2023-04-16T12:35:14.898Z,9.91
2023-04-16T12:37:42.985Z,9.99
2023-04-16T12:40:12.850Z,10.03
2023-04-16T12:42:40.938Z,10.10
2023-04-16T12:45:09.386Z,10.16
2023-04-16T12:47:37.522Z,10.17
2023-04-16T12:50:06.172Z,10.21
2023-04-16T12:52:35.562Z,10.17
2023-04-16T12:55:04.549Z,10.10
2023-04-16T12:57:33.948Z,10.12
2023-04-16T13:00:02.067Z,10.06
2023-04-16T13:02:30.534Z,10.05
2023-04-16T13:04:59.209Z,9.97
2023-04-16T13:07:28.279Z,9.68
2023-04-16T13:09:56.521Z,9.50
2023-04-16T13:12:24.619Z,9.39
2023-04-16T13:14:54.091Z,9.44
2023-04-16T13:17:22.308Z,9.49
2023-04-16T13:19:50.579Z,9.61
2023-04-16T13:22:18.789Z,9.71
2023-04-16T13:24:47.175Z,9.78
2023-04-16T13:27:16.148Z,9.91
2023-04-16T13:29:44.692Z,10.03
2023-04-16T13:32:14.854Z,10.03
2023-04-16T13:34:43.504Z,10.06
2023-04-16T13:37:11.567Z,10.05
2023-04-16T13:39:39.807Z,10.04
2023-04-16T13:42:07.988Z,9.99
2023-04-16T13:44:36.154Z,9.97
2023-04-16T13:47:04.330Z,9.93
2023-04-16T13:49:36.125Z,9.91
2023-04-16T13:52:04.586Z,9.89
2023-04-16T13:54:32.937Z,9.82
2023-04-16T13:57:01.215Z,9.81
2023-04-16T13:59:29.416Z,9.72
2023-04-16T14:01:57.599Z,9.62
2023-04-16T14:04:25.988Z,9.55
2023-04-16T14:06:55.717Z,9.58
2023-04-16T14:09:24.470Z,9.55
2023-04-16T14:11:52.602Z,9.41
2023-04-16T14:14:20.753Z,9.37
2023-04-16T14:16:48.966Z,9.32
2023-04-16T14:19:17.084Z,9.36
2023-04-16T14:21:45.282Z,9.44
2023-04-16T14:24:14.725Z,9.47
2023-04-16T14:26:44.242Z,9.53
2023-04-16T14:29:12.447Z,9.61
2023-04-16T14:31:40.643Z,9.67
2023-04-16T14:34:08.827Z,9.69
2023-04-16T14:36:37.298Z,9.54
2023-04-16T14:39:05.734Z,9.30
2023-04-16T14:41:35.169Z,9.25
2023-04-16T14:44:04.415Z,9.10
2023-04-16T14:46:33.733Z,8.95
2023-04-16T14:49:01.935Z,8.89
2023-04-16T14:51:30.136Z,8.93
2023-04-16T14:53:58.297Z,8.96
2023-04-16T14:56:26.298Z,9.00
2023-04-16T14:58:55.736Z,9.05
2023-04-16T15:01:24.030Z,9.05
2023-04-16T15:03:52.426Z,9.08
2023-04-16T15:06:20.740Z,9.14
2023-04-16T15:08:48.944Z,9.25
2023-04-16T15:11:17.081Z,9.31
2023-04-16T15:13:45.213Z,9.26
2023-04-16T15:16:14.640Z,9.17
2023-04-16T15:18:42.894Z,9.11
2023-04-16T15:21:12.534Z,9.15
2023-04-16T15:23:41.105Z,9.22
2023-04-16T15:26:09.270Z,9.34
2023-04-16T15:28:37.370Z,9.43
2023-04-16T15:31:05.439Z,9.54
2023-04-16T15:33:34.936Z,9.62
2023-04-16T15:36:03.862Z,9.66
2023-04-16T15:38:32.051Z,9.63
2023-04-16T15:41:00.999Z,9.63
2023-04-16T15:43:29.972Z,9.64
2023-04-16T15:45:58.238Z,9.64
2023-04-16T15:48:26.414Z,9.67
2023-04-16T15:50:56.084Z,9.66
2023-04-16T15:53:24.369Z,9.62
2023-04-16T15:55:53.800Z,9.61
2023-04-16T15:58:23.066Z,9.54
2023-04-16T16:00:51.476Z,9.54
2023-04-16T16:03:20.302Z,9.55
2023-04-16T16:05:49.255Z,9.56
2023-04-16T16:08:18.910Z,9.57
2023-04-16T16:10:47.093Z,9.57
2023-04-16T16:13:18.201Z,9.54
2023-04-16T16:15:46.413Z,9.52
2023-04-16T16:18:14.666Z,9.50
2023-04-16T16:20:42.911Z,9.48
2023-04-16T16:23:11.481Z,9.46
2023-04-16T16:25:42.181Z,9.46
2023-04-16T16:28:11.183Z,9.45
2023-04-16T16:30:40.783Z,9.40
2023-04-16T16:33:08.911Z,9.35
2023-04-16T16:35:36.999Z,9.33
2023-04-16T16:38:06.289Z,9.35
2023-04-16T16:40:34.358Z,9.37
2023-04-16T16:43:03.946Z,9.37
2023-04-16T16:45:32.427Z,9.36
2023-04-16T16:48:00.673Z,9.36
2023-04-16T16:50:28.736Z,9.38
2023-04-16T16:52:56.817Z,9.38
2023-04-16T16:55:24.947Z,9.38
2023-04-16T16:57:53.231Z,9.38
2023-04-16T17:00:23.026Z,9.36
2023-04-16T17:02:52.083Z,9.37
2023-04-16T17:05:20.389Z,9.36
2023-04-16T17:07:48.489Z,9.36
2023-04-16T17:10:20.442Z,9.40
2023-04-16T17:12:49.239Z,9.39
2023-04-16T17:15:21.786Z,9.39
2023-04-16T17:17:51.704Z,9.34
2023-04-16T17:20:20.006Z,9.31
2023-04-16T17:22:48.236Z,9.28
2023-04-16T17:25:16.420Z,9.27
2023-04-16T17:27:44.582Z,9.23
2023-04-16T17:30:13.030Z,9.18
2023-04-16T17:32:41.276Z,9.11
2023-04-16T17:35:11.254Z,9.10
2023-04-16T17:37:39.453Z,9.08
2023-04-16T17:40:10.153Z,9.05
2023-04-16T17:42:38.399Z,9.06
2023-04-16T17:45:07.139Z,9.05
2023-04-16T17:47:36.338Z,9.05
2023-04-16T17:50:04.693Z,9.04
2023-04-16T17:52:34.240Z,9.00
2023-04-16T17:55:03.582Z,8.99
2023-04-16T17:57:32.455Z,8.98
2023-04-16T18:00:00.796Z,8.99
2023-04-16T18:02:29.202Z,8.98
2023-04-16T18:04:57.566Z,8.97
2023-04-16T18:07:26.490Z,8.92
2023-04-16T18:09:55.929Z,8.87
2023-04-16T18:12:24.143Z,8.87
2023-04-16T18:14:52.270Z,8.84
2023-04-16T18:17:21.938Z,8.80
2023-04-16T18:19:50.130Z,8.76
2023-04-16T18:22:18.268Z,8.69
2023-04-16T18:27:16.636Z,8.63
2023-04-16T18:29:45.341Z,8.61
2023-04-16T18:32:13.564Z,8.56
2023-04-16T18:34:41.767Z,8.54
2023-04-16T18:37:09.928Z,8.50
2023-04-16T18:39:39.735Z,8.42
2023-04-16T18:42:07.923Z,8.35
2023-04-16T18:44:37.360Z,8.31
2023-04-16T18:47:05.533Z,8.27
2023-04-16T18:49:33.585Z,8.26
2023-04-16T18:52:01.917Z,8.24
2023-04-16T18:54:29.949Z,8.21
2023-04-16T18:56:59.734Z,8.20
2023-04-16T18:59:30.375Z,8.19
2023-04-16T19:02:00.244Z,8.18
2023-04-16T19:04:29.270Z,8.16
2023-04-16T19:06:57.416Z,8.16
2023-04-16T19:09:27.425Z,8.14
2023-04-16T19:11:56.071Z,8.12
2023-04-16T19:14:24.103Z,8.09
2023-04-16T19:16:52.338Z,8.09
2023-04-16T19:19:21.840Z,8.09
2023-04-16T19:21:50.402Z,8.10
2023-04-16T19:24:19.837Z,8.10
2023-04-16T19:26:48.053Z,8.11
2023-04-16T19:29:17.964Z,8.11
2023-04-16T19:31:47.453Z,8.11
2023-04-16T19:34:16.795Z,8.11
2023-04-16T19:36:46.586Z,8.10
2023-04-16T19:39:14.724Z,8.10
2023-04-16T19:41:42.830Z,8.09
2023-04-16T19:44:11.701Z,8.08
2023-04-16T19:46:39.795Z,8.09
2023-04-16T19:49:08.073Z,8.08
2023-04-16T19:51:36.231Z,8.07
2023-04-16T19:54:05.862Z,8.07
2023-04-16T19:56:33.948Z,8.05
2023-04-16T19:59:02.627Z,8.04
2023-04-16T20:01:31.902Z,8.04
2023-04-16T20:04:00.113Z,8.04
2023-04-16T20:06:28.312Z,8.05
2023-04-16T20:08:57.870Z,8.04
2023-04-16T20:11:27.410Z,8.02
2023-04-16T20:13:56.274Z,8.00
2023-04-16T20:16:24.718Z,7.98
2023-04-16T20:18:54.408Z,7.94
2023-04-16T20:21:22.817Z,7.93
2023-04-16T20:23:53.323Z,7.91
2023-04-16T20:26:24.045Z,7.90
2023-04-16T20:28:53.541Z,7.88
2023-04-16T20:31:21.949Z,7.88
2023-04-16T20:33:50.176Z,7.87
2023-04-16T20:36:18.312Z,7.87
2023-04-16T20:38:46.566Z,7.88
2023-04-16T20:41:20.341Z,7.86
2023-04-16T20:43:50.229Z,7.86
2023-04-16T20:46:23.962Z,7.86
2023-04-16T20:48:52.550Z,7.86
2023-04-16T20:51:21.540Z,7.86
2023-04-16T20:53:52.123Z,7.85
2023-04-16T20:56:20.616Z,7.86
2023-04-16T20:58:48.675Z,7.89
2023-04-16T21:01:18.349Z,7.89
2023-04-16T21:03:48.151Z,7.88
2023-04-16T21:06:17.757Z,7.86
2023-04-16T21:08:45.910Z,7.84
2023-04-16T21:11:14.108Z,7.81
2023-04-16T21:13:42.204Z,7.78
2023-04-16T21:16:12.491Z,7.75
2023-04-16T21:18:41.008Z,7.73
2023-04-16T21:21:10.470Z,7.71
2023-04-16T21:23:38.576Z,7.70
2023-04-16T21:26:06.829Z,7.67
2023-04-16T21:28:34.939Z,7.64
2023-04-16T21:31:03.115Z,7.63
2023-04-16T21:33:31.529Z,7.61
2023-04-16T21:35:59.691Z,7.59
2023-04-16T21:38:29.119Z,7.59
2023-04-16T21:40:57.327Z,7.58
2023-04-16T21:43:26.679Z,7.56
2023-04-16T21:45:54.980Z,7.57
2023-04-16T21:48:23.455Z,7.56
2023-04-16T21:50:58.011Z,7.55
2023-04-16T21:53:28.064Z,7.54
2023-04-16T21:55:57.480Z,7.55
2023-04-16T21:58:25.771Z,7.55
2023-04-16T22:00:54.201Z,7.53
2023-04-16T22:03:26.661Z,7.52
2023-04-16T22:06:00.731Z,7.52
2023-04-16T22:08:29.578Z,7.52
2023-04-16T22:11:00.166Z,7.51
2023-04-16T22:13:30.039Z,7.49
2023-04-16T22:15:58.254Z,7.46
2023-04-16T22:18:26.539Z,7.46
2023-04-16T22:20:55.362Z,7.46
2023-04-16T22:23:23.929Z,7.46
2023-04-16T22:25:52.220Z,7.45
2023-04-16T22:28:21.714Z,7.43
2023-04-16T22:30:49.882Z,7.40
2023-04-16T22:33:18.357Z,7.41
2023-04-16T22:35:46.685Z,7.39
2023-04-16T22:38:14.771Z,7.39
2023-04-16T22:40:42.867Z,7.37
2023-04-16T22:43:11.323Z,7.37
2023-04-16T22:45:41.109Z,7.36
2023-04-16T22:48:09.291Z,7.36
2023-04-16T22:50:37.380Z,7.35
2023-04-16T22:53:05.640Z,7.34
2023-04-16T22:55:33.724Z,7.33
2023-04-16T22:58:01.825Z,7.32
2023-04-16T23:00:29.896Z,7.30
2023-04-16T23:02:59.488Z,7.30
2023-04-16T23:05:27.839Z,7.27
2023-04-16T23:07:56.012Z,7.25
2023-04-16T23:10:24.025Z,7.25
2023-04-16T23:12:52.108Z,7.23
2023-04-16T23:15:20.181Z,7.23
2023-04-16T23:17:48.310Z,7.23
2023-04-16T23:20:17.777Z,7.23
2023-04-16T23:22:46.591Z,7.22
2023-04-16T23:25:14.708Z,7.22
2023-04-16T23:27:42.826Z,7.21
2023-04-16T23:30:11.468Z,7.21
2023-04-16T23:32:39.762Z,7.22
2023-04-16T23:35:08.730Z,7.21
2023-04-16T23:37:38.161Z,7.21
2023-04-16T23:40:08.216Z,7.21
2023-04-16T23:42:36.428Z,7.20
2023-04-16T23:45:04.729Z,7.20
2023-04-16T23:47:32.929Z,7.19
2023-04-16T23:50:01.089Z,7.19
2023-04-16T23:52:29.238Z,7.19
2023-04-16T23:54:58.665Z,7.19
2023-04-16T23:57:26.716Z,7.19
2023-04-16T23:59:54.790Z,7.19
